Date,TemperatureHighF,TemperatureAvgF,TemperatureLowF,DewpointHighF,DewpointAvgF,DewpointLowF,HumidityHigh,HumidityAvg,HumidityLow,PressureMaxIn,PressureMinIn,WindSpeedMaxMPH,WindSpeedAvgMPH,GustSpeedMaxMPH,PrecipitationSumIn
2013-1-1,37,34,24,30,25,12,82,70,59,30.04,29.88,4,1,6,0.05
2013-1-2,33,25,20,17,13,10,69,62,49,30.23,30.02,3,0,8,0.00
2013-1-3,33,26,20,18,15,14,77,65,49,30.24,30.11,2,0,5,0.00
2013-1-4,37,31,25,22,20,18,74,65,55,30.14,30.00,5,1,8,0.00
2013-1-5,44,33,28,24,20,17,71,61,43,30.32,30.06,3,0,7,0.00
2013-1-6,48,36,29,32,27,22,94,70,46,30.24,30.00,3,0,5,0.00
2013-1-7,46,36,30,29,25,20,79,64,42,30.42,30.09,3,0,5,0.00
2013-1-8,49,36,27,32,27,23,84,71,50,30.45,30.37,2,0,5,0.00
2013-1-9,46,39,32,37,32,27,85,76,70,30.41,30.17,2,0,6,0.00
2013-1-10,50,40,35,32,26,23,73,57,37,30.57,30.28,6,1,7,0.00
2013-1-11,45,40,34,43,32,22,96,76,53,30.56,30.11,2,0,5,0.46
2013-1-12,47,43,40,45,42,39,97,96,93,30.19,30.10,2,0,2,0.00
2013-1-13,48,44,42,48,44,41,98,97,97,30.17,30.03,4,0,4,0.05
2013-1-14,54,48,37,53,43,28,98,84,52,30.30,29.93,3,0,4,0.10
2013-1-15,37,35,32,35,30,27,93,80,69,30.36,30.23,2,0,3,0.11
2013-1-16,34,32,31,33,31,29,97,95,91,30.23,29.84,2,0,4,0.44
2013-1-17,42,36,33,33,29,24,94,75,60,30.12,29.94,4,1,5,0.14
2013-1-18,33,27,22,25,13,5,76,56,36,30.51,30.02,3,0,8,0.00
2013-1-19,49,36,23,28,22,11,76,59,43,30.44,29.96,9,1,9,0.00
2013-1-20,53,40,27,30,22,11,74,52,26,30.06,29.73,6,2,11,0.00
2013-1-21,30,26,19,16,11,9,71,55,43,30.12,29.88,2,0,6,0.00
2013-1-22,23,17,10,9,-1,-7,59,47,32,30.26,29.88,8,2,11,0.00
2013-1-23,20,12,7,0,-3,-8,69,52,37,30.30,30.21,6,1,6,0.00
2013-1-24,24,14,7,3,-1,-3,76,54,30,30.48,30.18,7,1,8,0.00
2013-1-25,22,14,8,13,3,-5,90,63,44,30.49,30.13,2,0,5,0.00
2013-1-26,28,18,10,11,8,5,89,67,44,30.44,30.11,5,1,6,0.00
2013-1-27,36,23,14,14,10,6,73,59,38,30.59,30.44,3,1,5,0.00
2013-1-28,32,28,22,31,23,11,96,82,57,30.54,30.06,1,0,6,0.00
2013-1-29,53,42,32,44,39,31,97,91,70,30.18,30.06,1,0,4,0.03
2013-1-30,64,51,41,59,50,40,98,94,79,30.09,29.37,3,0,11,0.09
2013-1-31,59,42,26,58,30,10,97,65,39,29.81,29.06,13,3,15,1.39
2013-2-1,31,25,20,18,11,5,83,57,34,30.28,29.82,5,2,10,0.00
2013-2-2,30,21,14,19,9,5,89,60,37,30.35,30.09,4,1,8,0.00
2013-2-3,32,24,20,21,18,16,92,80,63,30.09,29.83,3,0,3,0.01
2013-2-4,29,23,18,19,11,8,81,60,44,30.03,29.86,7,1,9,0.00
2013-2-5,29,27,23,26,23,16,93,87,73,30.01,29.94,1,0,3,0.00
2013-2-6,37,30,24,26,21,10,95,72,51,30.39,29.96,5,1,8,0.01
2013-2-7,33,26,19,21,12,7,70,57,43,30.54,30.35,2,0,5,0.00
2013-2-8,32,31,27,31,28,22,94,88,71,30.35,29.69,6,1,12,0.00
2013-2-9,34,26,16,27,16,6,95,68,41,30.38,29.79,8,1,21,0.00
2013-2-10,40,24,12,20,12,6,80,62,32,30.52,30.36,2,0,4,0.18
2013-2-11,43,36,27,42,33,20,97,92,74,30.37,29.70,3,0,6,0.28
2013-2-12,43,37,29,36,26,22,97,65,51,30.00,29.77,7,2,9,0.00
2013-2-13,44,34,26,30,24,21,94,71,48,29.99,29.71,1,0,4,0.00
2013-2-14,47,36,28,33,28,24,96,75,43,30.03,29.74,2,0,3,0.08
2013-2-15,56,41,30,34,30,26,93,67,39,30.04,29.94,3,0,7,0.00
2013-2-16,39,33,28,32,25,13,95,73,53,29.99,29.77,3,0,8,0.03
2013-2-17,31,24,16,12,6,0,56,46,35,30.04,29.71,8,2,12,0.00
2013-2-18,34,23,14,11,6,0,60,48,34,30.30,30.04,7,2,10,0.00
2013-2-19,45,34,23,41,27,11,96,75,51,30.23,29.72,6,1,10,0.36
2013-2-20,34,27,22,24,14,8,71,57,46,30.03,29.77,7,2,10,0.00
2013-2-21,35,26,21,16,12,9,68,57,44,30.31,30.02,7,2,11,0.00
2013-2-22,36,29,21,30,20,13,87,72,56,30.44,30.30,2,0,7,0.00
2013-2-23,41,37,34,41,36,30,97,95,87,30.30,29.83,4,0,6,0.40
2013-2-24,45,36,29,39,30,20,97,80,60,30.01,29.78,6,1,8,0.00
2013-2-25,44,34,28,28,25,20,83,69,53,30.26,30.02,3,0,6,0.00
2013-2-26,45,36,30,33,29,25,94,76,60,30.30,29.86,5,0,9,0.14
2013-2-27,47,40,34,45,38,33,96,90,77,29.89,29.53,9,2,13,0.68
2013-2-28,48,40,33,36,32,26,88,74,53,29.65,29.57,3,1,5,0.00
2013-3-1,45,36,31,30,28,24,89,71,51,29.80,29.63,4,1,7,0.00
2013-3-2,38,32,28,24,22,20,78,67,55,29.81,29.73,4,1,6,0.00
2013-3-3,37,30,26,20,18,15,71,61,47,29.80,29.70,4,1,11,0.00
2013-3-4,41,32,24,21,18,14,71,58,43,29.95,29.80,6,2,10,0.00
2013-3-5,49,36,28,27,23,19,76,60,38,30.05,29.95,3,0,6,0.00
2013-3-6,40,37,34,34,30,26,88,76,64,29.98,29.84,8,2,18,0.01
2013-3-7,40,35,31,33,28,24,93,77,65,30.11,29.94,4,1,14,0.05
2013-3-8,40,33,28,34,29,26,94,86,69,30.22,30.03,3,0,6,0.32
2013-3-9,60,42,29,26,20,10,74,46,16,30.33,30.20,3,1,7,0.06
2013-3-10,54,39,31,36,32,18,96,76,43,30.39,30.30,3,0,5,0.00
2013-3-11,58,44,33,46,39,31,95,84,53,30.34,30.10,2,0,4,0.00
2013-3-12,56,50,41,55,48,36,97,92,80,30.10,29.68,3,0,7,0.85
2013-3-13,51,41,34,36,29,22,92,66,36,29.91,29.82,4,1,7,0.00
2013-3-14,41,33,28,22,13,7,62,45,28,30.00,29.88,7,2,10,0.00
2013-3-15,46,36,25,30,19,10,63,51,42,30.02,29.75,4,1,9,0.00
2013-3-16,41,33,30,30,26,20,92,75,54,29.94,29.79,1,0,3,0.03
2013-3-17,36,31,25,29,20,15,90,65,45,30.32,29.94,4,0,6,0.01
2013-3-18,35,29,24,30,19,8,95,68,48,30.42,30.02,4,0,6,0.08
2013-3-19,47,37,32,37,31,16,96,80,44,30.01,29.72,5,1,9,0.88
2013-3-20,45,36,28,21,18,15,65,49,32,29.92,29.80,6,1,9,0.00
2013-3-21,39,32,26,27,17,11,89,56,35,29.86,29.66,5,1,6,0.00
2013-3-22,40,32,25,21,17,11,71,55,40,29.91,29.77,8,2,10,0.00
2013-3-23,46,36,29,23,19,17,67,51,35,29.96,29.85,7,2,10,0.00
2013-3-24,46,37,28,24,19,16,64,50,36,29.98,29.72,4,0,7,0.00
2013-3-25,37,35,32,33,29,24,94,80,61,29.72,29.50,5,0,9,0.19
2013-3-26,49,40,32,32,29,25,94,68,41,29.89,29.63,3,0,7,0.01
2013-3-27,51,40,31,30,26,22,76,60,32,30.01,29.89,7,1,10,0.00
2013-3-28,49,40,32,30,28,26,82,63,45,30.13,29.99,4,1,6,0.00
2013-3-29,55,43,34,29,27,26,74,55,34,30.17,30.08,7,1,8,0.00
2013-3-30,59,46,35,31,25,17,74,47,24,30.20,30.09,4,0,6,0.00
2013-3-31,58,46,35,42,33,21,96,65,35,30.14,29.71,2,0,5,0.23
2013-4-1,63,46,33,46,36,12,97,71,38,29.93,29.65,6,1,11,0.00
2013-4-2,43,35,28,17,13,10,54,41,28,30.11,29.93,6,1,10,0.00
2013-4-3,46,35,26,17,12,9,55,40,28,30.32,30.11,5,1,9,0.00
2013-4-4,55,39,25,23,17,11,63,43,26,30.42,30.11,4,1,6,0.00
2013-4-5,65,47,37,30,24,18,74,44,20,30.10,29.74,4,1,8,0.00
2013-4-6,54,42,31,25,16,10,64,37,18,30.32,30.02,4,1,6,0.00
2013-4-7,64,48,34,42,32,25,78,58,28,30.32,30.00,4,1,12,0.00
2013-4-8,78,60,48,46,42,38,81,56,24,30.08,29.98,3,0,8,0.00
2013-4-9,84,68,55,51,45,35,78,47,19,29.98,29.90,5,1,10,0.00
2013-4-10,85,66,55,55,50,44,95,60,34,29.94,29.80,2,0,5,0.38
2013-4-11,59,54,45,58,50,40,97,87,67,30.02,29.77,4,0,7,0.01
2013-4-12,46,42,40,41,40,39,97,92,75,29.99,29.72,6,1,10,0.80
2013-4-13,58,47,36,43,36,33,98,70,41,29.99,29.76,3,1,6,0.01
2013-4-14,59,50,42,37,31,27,72,50,32,30.22,29.98,5,1,9,0.00
2013-4-15,61,49,40,41,32,26,83,54,37,30.38,30.22,2,0,5,0.00
2013-4-16,72,57,44,54,48,40,92,73,51,30.37,30.12,4,1,7,0.00
2013-4-17,73,60,50,56,42,30,93,55,21,30.29,30.12,3,0,4,0.00
2013-4-18,58,51,46,52,44,37,96,77,62,30.34,30.10,1,0,4,0.00
2013-4-19,78,65,54,64,59,53,97,83,58,30.09,29.64,4,1,10,0.30
2013-4-20,58,50,43,54,35,25,94,60,34,30.30,29.70,4,2,9,0.13
2013-4-21,56,43,31,27,23,19,67,46,26,30.63,30.31,3,0,6,0.00
2013-4-22,56,45,36,37,31,25,77,59,41,30.66,30.49,5,1,8,0.00
2013-4-23,48,43,37,41,36,30,86,76,65,30.48,30.14,3,0,5,0.00
2013-4-24,75,56,39,52,45,36,90,69,42,30.14,29.82,4,1,7,0.00
2013-4-25,66,54,42,52,31,23,82,43,20,30.28,29.87,6,1,9,0.00
2013-4-26,67,55,46,35,28,23,54,39,20,30.41,30.27,4,0,5,0.00
2013-4-27,72,56,42,33,30,27,61,39,20,30.44,30.28,3,0,5,0.00
2013-4-28,73,58,43,42,35,26,71,45,28,30.32,30.19,6,0,7,0.00
2013-4-29,54,51,49,50,48,39,96,88,58,30.24,30.18,1,0,2,0.18
2013-4-30,68,54,46,49,41,28,96,66,28,30.34,30.21,2,0,5,0.00
2013-5-1,70,54,43,44,35,27,84,51,24,30.49,30.34,3,0,7,0.00
2013-5-2,76,58,44,45,41,39,90,58,29,30.48,30.34,4,0,4,0.00
2013-5-3,68,55,44,44,39,34,89,58,37,30.45,30.36,5,0,7,0.00
2013-5-4,72,54,43,45,41,39,94,66,34,30.38,30.24,2,0,6,0.00
2013-5-5,64,50,40,43,40,37,92,71,44,30.30,30.23,3,0,5,0.00
2013-5-6,70,54,43,53,46,41,93,77,54,30.27,30.17,2,0,4,0.00
2013-5-7,74,59,48,58,52,45,94,78,58,30.18,30.09,2,0,5,0.00
2013-5-8,66,59,53,62,57,51,97,93,82,30.10,29.96,3,0,5,1.61
2013-5-9,69,59,52,59,54,51,98,87,64,30.00,29.91,2,0,3,0.46
2013-5-10,81,67,54,60,56,52,97,71,39,30.01,29.90,1,0,5,0.00
2013-5-11,72,63,59,66,61,57,98,94,79,29.91,29.71,2,0,6,0.81
2013-5-12,66,58,47,58,42,27,96,61,28,29.95,29.68,4,1,9,0.00
2013-5-13,56,47,40,32,30,26,71,52,35,30.12,29.95,4,0,6,0.00
2013-5-14,63,49,37,32,29,22,77,49,23,30.15,30.04,3,0,4,0.00
2013-5-15,75,59,46,57,45,28,77,60,46,30.08,29.70,2,0,8,0.00
2013-5-16,82,68,58,60,54,41,86,63,36,29.84,29.72,2,0,4,0.00
2013-5-17,74,63,55,44,41,38,60,45,31,30.20,29.85,2,0,3,0.00
2013-5-18,63,58,55,55,49,41,88,73,53,30.31,30.20,0,0,2,0.00
2013-5-19,57,55,54,56,54,52,98,96,88,30.31,30.18,2,0,4,0.75
2013-5-20,79,66,56,68,62,55,98,88,63,30.19,29.98,2,0,4,0.01
2013-5-21,88,74,64,71,67,63,97,81,57,29.98,29.86,2,0,5,0.00
2013-5-22,83,71,62,73,67,60,96,86,68,29.93,29.83,1,0,4,0.00
2013-5-23,78,70,67,72,67,65,95,90,70,29.89,29.75,2,0,8,0.22
2013-5-24,67,53,43,65,51,41,97,93,86,29.98,29.70,2,0,3,0.37
2013-5-25,56,48,42,45,40,35,96,77,54,30.03,29.92,5,1,6,0.13
2013-5-26,69,55,44,42,37,32,79,54,32,30.22,30.00,3,0,6,0.00
2013-5-27,76,60,46,44,38,33,66,46,27,30.27,30.15,2,0,4,0.00
2013-5-28,62,57,54,56,50,42,97,78,55,30.23,30.15,3,0,3,0.34
2013-5-29,86,76,59,71,65,58,98,72,50,30.12,30.02,2,0,5,0.01
2013-5-30,93,80,70,68,65,62,87,63,37,30.14,30.07,2,0,4,0.00
2013-5-31,94,80,69,70,64,59,87,61,32,30.13,30.00,3,0,5,0.00
2013-6-1,92,80,70,70,66,62,87,65,42,30.03,29.90,3,0,5,0.00
2013-6-2,87,78,69,70,67,65,89,71,50,29.92,29.79,2,0,7,0.00
2013-6-3,79,71,64,70,66,54,97,84,64,29.88,29.80,2,0,7,0.16
2013-6-4,77,63,53,53,46,43,75,55,34,30.12,29.89,1,0,4,0.00
2013-6-5,74,62,52,53,45,38,87,55,34,30.22,30.11,3,0,5,0.00
2013-6-6,70,61,56,59,57,52,96,85,56,30.15,30.00,1,0,5,0.23
2013-6-7,62,60,58,61,59,58,98,98,96,30.00,29.61,3,0,9,4.33
2013-6-8,74,65,55,65,61,55,98,87,69,30.06,29.59,2,0,6,0.04
2013-6-9,82,70,58,61,59,56,95,70,46,30.18,30.07,1,0,3,0.00
2013-6-10,68,65,62,65,63,58,98,92,71,30.16,29.81,2,0,5,1.82
2013-6-11,77,71,66,68,65,60,98,83,67,29.81,29.64,3,0,7,0.05
2013-6-12,81,69,62,61,57,53,86,68,43,29.86,29.73,1,0,3,0.00
2013-6-13,65,61,55,61,58,52,96,89,67,29.85,29.45,4,0,9,0.92
2013-6-14,74,59,51,62,55,50,97,88,61,29.91,29.54,4,0,7,0.46
2013-6-15,80,67,56,61,56,53,96,71,42,30.03,29.91,2,0,4,0.00
2013-6-16,82,70,61,64,58,51,90,67,45,30.00,29.80,3,0,11,0.00
2013-6-17,86,72,64,68,64,61,95,77,52,29.93,29.85,2,0,4,0.00
2013-6-18,81,69,62,70,65,61,97,86,65,29.91,29.81,0,0,4,0.16
2013-6-19,77,65,56,60,54,48,97,70,38,30.17,29.88,2,0,6,0.00
2013-6-20,82,68,57,61,55,51,87,64,40,30.28,30.18,2,0,3,0.00
2013-6-21,84,70,59,60,54,50,77,58,39,30.31,30.24,2,0,4,0.00
2013-6-22,85,71,59,66,59,51,81,66,49,30.27,30.13,1,0,4,0.00
2013-6-23,89,75,64,71,66,61,94,77,52,30.20,30.06,3,0,6,0.00
2013-6-24,92,77,70,73,68,61,97,77,45,30.08,29.96,2,0,5,0.00
2013-6-25,90,76,67,74,68,64,95,79,48,30.00,29.82,3,0,6,0.36
2013-6-26,86,76,69,71,68,64,89,76,57,29.86,29.79,1,0,3,0.00
2013-6-27,87,76,69,74,70,68,97,83,62,29.83,29.55,2,0,5,1.34
2013-6-28,86,75,70,71,69,65,98,83,56,29.57,29.48,3,0,6,0.00
2013-6-29,86,75,66,69,66,63,96,76,52,29.70,29.49,2,0,4,0.00
2013-6-30,81,74,71,76,72,69,97,91,80,29.91,29.71,0,0,3,0.19
2013-7-1,75,73,70,74,72,69,98,97,95,30.05,29.89,2,0,7,1.23
2013-7-2,83,75,71,76,72,70,98,92,75,30.19,30.04,1,0,4,0.00
2013-7-3,84,75,70,76,72,69,97,90,70,30.26,30.18,1,0,4,0.03
2013-7-4,88,79,73,76,73,71,98,83,62,30.26,30.16,3,0,4,0.00
2013-7-5,91,80,72,75,72,69,97,78,56,30.22,30.10,3,0,5,0.00
2013-7-6,93,81,74,75,73,71,93,76,54,30.15,30.03,2,0,4,0.00
2013-7-7,92,82,74,77,73,68,90,74,55,30.07,29.94,2,0,5,0.00
2013-7-8,88,80,70,72,69,65,91,70,54,30.06,29.98,2,0,5,0.00
2013-7-9,88,76,69,74,69,66,95,81,57,30.08,30.00,2,0,3,0.14
2013-7-10,86,77,71,76,72,70,97,85,66,30.02,29.82,3,0,7,0.00
2013-7-11,83,76,71,74,70,63,91,81,63,29.93,29.81,1,0,3,0.00
2013-7-12,75,66,67,69,55,-100,97,79,74,30.09,29.92,3,-67,9,0.50
2013-7-13,80,59,67,76,39,-100,99,78,86,30.29,30.09,5,-189,6,0.25
2013-7-14,90,79,73,76,73,70,99,83,59,30.35,30.25,1,0,4,0.01
2013-7-15,94,81,72,78,73,70,95,78,54,30.26,30.14,0,0,1,0.00
2013-7-16,93,81,73,72,70,66,84,69,46,30.21,30.14,1,0,3,0.00
2013-7-17,95,83,75,74,71,68,82,68,47,30.20,30.06,0,0,2,0.00
2013-7-18,97,85,76,77,73,70,86,70,45,30.08,29.97,0,0,3,0.00
2013-7-19,95,85,78,80,76,73,90,75,51,29.98,29.80,2,0,6,0.00
2013-7-20,91,79,73,76,72,69,95,79,57,29.84,29.74,4,0,6,0.09
2013-7-21,87,77,72,71,68,63,96,75,51,29.96,29.83,2,0,3,0.00
2013-7-22,84,75,71,75,71,66,97,86,67,29.95,29.80,0,0,3,0.17
2013-7-23,86,75,70,75,72,69,98,92,69,29.79,29.58,1,0,4,0.69
2013-7-24,80,73,63,70,65,54,94,79,62,29.93,29.62,0,0,2,0.00
2013-7-25,65,63,60,60,55,50,87,76,68,30.05,29.93,2,0,5,0.00
2013-7-26,82,70,62,65,60,57,88,73,48,30.06,30.01,1,0,4,0.00
2013-7-27,85,72,64,68,64,60,95,77,48,30.06,29.95,2,0,4,0.00
2013-7-28,80,70,66,72,67,63,98,89,75,29.99,29.90,1,0,2,1.39
2013-7-29,83,71,65,70,64,57,98,80,44,30.12,29.96,1,0,2,0.02
2013-7-30,81,70,60,61,58,55,84,68,47,30.18,30.11,1,0,4,0.00
2013-7-31,82,71,61,64,60,56,84,69,48,30.17,30.05,1,0,2,0.00
2013-8-1,69,67,65,68,65,63,98,93,83,30.05,29.84,0,0,2,1.06
2013-8-2,83,71,62,69,64,61,99,81,52,29.93,29.80,2,0,4,0.00
2013-8-3,77,68,65,68,64,58,94,84,69,29.93,29.86,3,0,5,0.01
2013-8-4,81,69,61,65,59,52,94,71,46,29.99,29.87,3,0,5,0.00
2013-8-5,79,66,58,55,52,46,80,62,40,30.08,29.98,1,0,6,0.00
2013-8-6,82,69,60,63,57,52,86,67,43,30.13,30.04,2,0,5,0.00
2013-8-7,77,70,64,67,65,62,94,86,71,30.14,30.07,2,0,4,0.00
2013-8-8,81,72,68,77,71,67,98,95,79,30.07,29.99,1,0,5,1.31
2013-8-9,82,75,71,76,73,70,99,94,79,30.02,29.82,3,0,6,0.07
2013-8-10,83,73,66,72,67,61,98,82,57,30.06,29.88,2,0,3,0.00
2013-8-11,83,70,60,65,60,54,87,71,48,30.14,30.03,1,0,2,0.00
2013-8-12,83,71,67,69,66,61,97,84,54,30.05,29.94,0,0,1,0.43
2013-8-13,78,71,66,70,68,64,98,92,76,29.94,29.71,3,0,3,1.24
2013-8-14,75,64,56,64,55,51,92,73,52,30.07,29.77,1,0,4,0.00
2013-8-15,79,64,54,56,52,48,88,67,40,30.16,30.07,2,0,3,0.00
2013-8-16,81,67,58,59,55,51,89,66,40,30.22,30.14,1,0,3,0.00
2013-8-17,83,69,61,61,57,54,85,68,43,30.29,30.22,2,0,5,0.00
2013-8-18,74,68,64,64,60,56,87,76,54,30.27,30.15,2,0,3,0.00
2013-8-19,74,68,62,65,63,59,96,84,63,30.15,30.06,0,0,2,0.00
2013-8-20,88,74,64,69,65,63,96,77,46,30.15,30.06,2,0,2,0.00
2013-8-21,89,76,66,67,64,60,88,68,41,30.19,30.07,1,0,3,0.00
2013-8-22,77,72,68,74,70,66,98,94,75,30.08,29.89,0,0,7,1.04
2013-8-23,78,70,65,70,64,56,98,81,53,30.10,29.89,0,0,2,0.00
2013-8-24,80,67,59,58,54,50,85,65,36,30.36,30.11,2,0,5,0.00
2013-8-25,83,69,59,60,57,54,90,67,40,30.41,30.25,2,0,3,0.00
2013-8-26,80,70,63,68,62,55,89,74,60,30.25,29.93,2,0,5,0.01
2013-8-27,88,75,67,71,68,66,97,81,53,29.93,29.84,1,0,5,0.06
2013-8-28,79,73,69,72,70,67,97,91,78,29.90,29.85,0,0,1,0.02
2013-8-29,79,71,67,70,68,65,98,91,71,30.04,29.89,1,0,3,0.01
2013-8-30,84,73,66,72,68,65,96,86,64,30.04,29.88,2,0,3,0.00
2013-8-31,86,76,69,76,71,68,96,87,68,29.89,29.80,2,0,5,0.00
2013-9-1,84,75,70,76,72,68,98,90,73,29.86,29.79,5,0,6,1.71
2013-9-2,80,72,69,75,71,68,99,96,84,29.81,29.72,0,0,1,0.11
2013-9-3,82,72,64,71,66,59,99,83,50,29.90,29.72,1,0,4,0.01
2013-9-4,81,68,59,64,59,57,94,75,49,30.02,29.89,1,0,4,0.00
2013-9-5,79,66,58,64,55,45,90,70,41,30.16,29.95,0,0,4,0.00
2013-9-6,73,59,50,48,45,40,78,61,36,30.27,30.16,3,0,5,0.00
2013-9-7,80,64,53,55,51,46,90,64,39,30.15,29.93,3,0,3,0.00
2013-9-8,80,68,58,67,57,45,87,69,47,30.08,29.84,2,0,3,0.00
2013-9-9,74,62,51,59,52,45,84,71,56,30.25,30.09,1,0,3,0.00
2013-9-10,87,74,64,74,68,59,94,83,65,30.18,30.07,2,0,5,0.00
2013-9-11,93,80,72,80,74,70,96,80,60,30.13,29.99,3,0,5,0.00
2013-9-12,85,75,66,75,71,66,97,87,70,30.00,29.70,3,0,5,0.15
2013-9-13,77,66,55,66,60,50,98,83,54,29.87,29.65,1,0,4,0.07
2013-9-14,65,55,49,51,48,45,89,76,57,30.15,29.87,1,0,3,0.00
2013-9-15,73,58,46,53,48,43,91,71,41,30.24,30.10,2,0,4,0.00
2013-9-16,72,60,54,59,54,48,96,81,55,30.25,30.05,1,0,3,0.02
2013-9-17,67,53,43,48,41,36,84,64,38,30.44,30.25,5,0,6,0.00
2013-9-18,74,57,47,50,45,41,86,67,38,30.37,30.21,2,0,4,0.00
2013-9-19,78,61,51,53,50,46,88,69,39,30.21,30.09,1,0,3,0.00
2013-9-20,82,64,55,60,56,52,95,77,44,30.10,30.00,2,0,3,0.00
2013-9-21,78,65,54,67,60,54,97,85,55,30.02,29.68,3,0,5,0.45
2013-9-22,69,60,51,63,52,41,97,78,50,29.93,29.66,2,0,3,0.28
2013-9-23,67,54,45,48,43,40,86,70,46,30.06,29.93,1,0,5,0.00
2013-9-24,75,56,43,51,45,40,90,70,40,30.07,29.91,1,0,3,0.00
2013-9-25,72,58,48,52,47,42,82,67,42,29.98,29.89,1,0,3,0.00
2013-9-26,69,59,51,59,54,49,95,84,66,30.11,29.95,3,0,5,0.00
2013-9-27,66,58,50,55,52,48,94,81,61,30.28,30.11,2,0,4,0.00
2013-9-28,74,60,52,54,52,49,93,76,43,30.34,30.25,4,0,5,0.00
2013-9-29,73,59,53,58,53,51,93,82,56,30.25,30.09,1,0,3,0.00
2013-9-30,74,60,51,55,52,50,96,78,47,30.10,29.99,2,0,3,0.00
2013-10-1,82,65,55,62,56,51,90,75,49,30.03,29.93,1,0,3,0.00
2013-10-2,84,69,59,64,59,54,86,72,48,30.03,29.93,1,0,3,0.00
2013-10-3,78,67,59,60,57,52,90,73,43,30.13,30.03,1,0,2,0.00
2013-10-4,87,71,62,67,63,57,94,78,50,30.07,29.98,3,0,3,0.00
2013-10-5,81,68,64,67,64,62,97,87,61,30.10,30.02,2,0,3,0.00
2013-10-6,67,65,64,66,64,62,98,97,94,30.09,30.03,2,0,4,0.00
2013-10-7,76,64,52,71,63,50,99,96,83,30.02,29.75,4,0,11,0.00
2013-10-8,69,55,47,50,47,43,95,76,41,30.34,30.01,1,0,3,0.00
2013-10-9,59,54,48,49,45,38,82,73,63,30.40,30.30,4,0,9,0.16
2013-10-10,59,55,49,54,50,46,94,86,80,30.28,30.08,3,0,10,0.01
2013-10-11,64,60,55,60,56,53,95,87,79,30.09,30.01,4,1,8,0.02
2013-10-12,71,63,55,57,48,38,82,60,34,30.27,30.08,3,1,9,0.00
2013-10-13,66,57,52,53,51,48,91,80,61,30.39,30.27,3,0,7,0.00
2013-10-14,69,55,48,52,48,46,95,80,50,30.37,30.25,2,0,4,0.00
2013-10-15,73,58,50,55,49,37,95,75,40,30.28,30.14,1,0,4,0.00
2013-10-16,66,58,52,59,54,49,95,88,75,30.13,29.93,1,0,2,0.00
2013-10-17,72,63,59,62,60,57,98,90,70,29.93,29.70,1,0,3,0.02
2013-10-18,68,58,51,62,47,41,96,69,44,30.00,29.69,2,0,4,0.00
2013-10-19,63,54,48,52,45,41,93,73,56,30.00,29.77,4,0,4,0.01
2013-10-20,64,52,43,52,40,34,94,68,33,30.09,29.78,3,0,5,0.00
2013-10-21,69,54,45,44,39,36,77,60,33,30.17,30.00,3,0,5,0.00
2013-10-22,62,52,46,50,45,34,95,78,57,30.00,29.78,2,0,4,0.00
2013-10-23,56,46,40,40,36,33,81,70,51,29.83,29.63,1,0,4,0.00
2013-10-24,55,42,36,35,31,26,86,66,36,30.04,29.78,2,0,5,0.00
2013-10-25,55,42,34,35,31,28,82,66,39,30.26,30.05,2,0,4,0.00
2013-10-26,56,44,34,33,30,27,83,61,36,30.25,29.92,5,0,11,0.00
2013-10-27,59,47,41,35,32,30,69,56,39,30.15,29.88,1,0,4,0.00
2013-10-28,62,47,37,36,32,30,76,58,36,30.33,30.15,1,0,5,0.00
2013-10-29,58,46,39,37,33,29,73,61,39,30.43,30.33,1,0,5,0.00
2013-10-30,57,49,41,50,42,29,93,76,57,30.38,30.20,0,0,2,0.00
2013-10-31,62,57,50,60,55,48,96,92,84,30.25,29.82,1,0,4,0.10
2013-11-1,69,62,56,63,58,53,98,87,62,29.81,29.57,4,0,10,0.26
2013-11-2,68,56,50,55,46,39,96,70,45,29.80,29.64,1,0,3,0.00
2013-11-3,52,43,31,41,32,19,82,64,39,30.46,29.80,2,0,4,0.00
2013-11-4,47,36,28,23,18,15,66,52,28,30.68,30.46,4,0,5,0.00
2013-11-5,55,44,33,41,34,21,87,70,52,30.68,30.50,1,0,3,0.00
2013-11-6,65,52,42,51,45,40,95,79,51,30.51,30.08,1,0,4,0.00
2013-11-7,60,51,36,56,48,32,96,89,72,30.08,29.78,2,0,7,0.00
2013-11-8,49,40,34,35,29,25,83,66,44,30.25,29.95,3,0,5,0.00
2013-11-9,52,40,31,31,27,25,82,63,38,30.32,30.02,1,0,4,0.00
2013-11-10,59,46,36,36,32,26,80,60,39,30.08,29.84,4,1,11,0.00
2013-11-11,52,45,36,33,28,24,64,53,41,30.23,29.98,4,0,6,0.00
2013-11-12,48,35,25,34,23,16,88,64,49,30.32,29.95,3,0,6,0.00
2013-11-13,39,29,22,19,15,11,76,57,32,30.40,30.31,2,0,6,0.00
2013-11-14,53,39,27,21,17,13,68,45,21,30.31,30.20,3,0,7,0.00
2013-11-15,55,44,34,30,26,21,65,50,29,30.28,30.19,1,0,4,0.00
2013-11-16,61,48,42,46,40,28,96,75,49,30.36,30.26,2,0,11,0.00
2013-11-17,58,53,47,57,52,45,98,95,89,30.28,29.80,1,0,2,0.00
2013-11-18,65,57,47,61,41,26,98,60,34,29.80,29.62,5,1,10,0.00
2013-11-19,46,40,31,28,24,20,63,53,44,30.36,29.80,6,1,8,0.00
2013-11-20,46,34,28,20,15,6,69,49,21,30.64,30.37,2,0,5,0.00
2013-11-21,52,40,27,40,29,14,81,65,54,30.64,30.42,2,0,5,0.00
2013-11-22,55,49,45,49,45,40,96,86,78,30.41,29.93,2,0,4,0.00
2013-11-23,50,39,27,47,25,12,92,59,39,30.05,29.93,4,1,8,0.00
2013-11-24,28,22,19,11,4,1,53,44,35,30.42,30.05,7,1,10,0.00
2013-11-25,35,26,18,14,10,5,68,53,41,30.52,30.36,3,0,5,0.00
2013-11-26,45,33,29,45,25,14,97,74,53,30.36,29.78,3,0,9,0.61
2013-11-27,60,43,31,59,41,20,98,91,64,29.78,29.36,6,1,9,2.07
2013-11-28,35,29,25,22,14,11,77,56,39,30.49,29.80,5,1,8,0.00
2013-11-29,37,29,24,21,18,15,76,65,50,30.75,30.49,3,0,4,0.00
2013-11-30,35,28,20,28,19,11,82,69,55,30.77,30.40,2,0,5,0.00
2013-12-1,48,37,30,32,28,23,87,71,53,30.40,30.04,1,0,4,0.00
2013-12-2,50,40,35,35,30,27,91,68,47,30.03,29.90,0,0,2,0.00
2013-12-3,53,41,33,37,34,31,96,77,51,30.03,29.90,1,0,3,0.00
2013-12-4,49,43,36,45,38,33,92,83,70,30.15,30.03,1,0,3,0.00
2013-12-5,55,51,46,55,50,44,98,97,88,30.13,29.95,1,0,2,0.07
2013-12-6,59,46,36,59,45,35,99,97,94,30.16,29.88,3,0,5,0.94
2013-12-7,38,33,27,35,27,17,97,81,61,30.53,30.10,5,0,5,0.11
2013-12-8,30,27,23,27,19,15,95,75,60,30.61,30.38,1,0,4,0.00
2013-12-9,34,32,28,33,31,27,97,96,95,30.38,30.00,3,0,8,0.28
2013-12-10,32,29,22,31,27,17,97,93,80,30.16,29.91,0,0,2,0.00
2013-12-11,31,24,19,19,16,13,84,71,53,30.36,30.16,3,0,8,0.00
2013-12-12,26,20,16,16,9,5,78,62,46,30.39,30.20,3,0,5,0.00
2013-12-13,33,24,15,17,12,5,70,62,51,30.36,30.17,5,0,7,0.01
2013-12-14,30,23,19,29,19,17,96,83,67,30.50,29.79,5,1,13,0.00
2013-12-15,35,31,27,32,27,20,96,86,68,29.87,29.55,5,1,8,0.01
2013-12-16,28,23,18,21,12,8,78,63,49,30.27,29.87,6,1,7,0.00
2013-12-17,26,22,18,24,18,10,93,86,63,30.25,29.98,2,0,4,0.00
2013-12-18,34,25,18,23,19,15,91,77,58,30.22,29.97,5,0,8,0.07
2013-12-19,41,32,23,29,24,17,82,72,56,30.23,30.07,2,0,5,0.03
2013-12-20,48,42,34,43,32,27,84,68,55,30.14,30.00,2,0,5,0.19
2013-12-21,61,52,43,54,47,41,97,85,69,30.03,29.93,2,0,6,0.00
2013-12-22,67,62,57,62,58,54,95,86,77,29.97,29.82,6,1,10,0.02
2013-12-23,58,52,37,58,50,30,98,94,76,30.17,29.91,3,0,7,0.47
2013-12-24,38,32,22,30,22,11,90,68,53,30.36,30.12,4,0,7,0.00
2013-12-25,26,21,15,15,9,6,70,61,48,30.55,30.36,3,0,7,0.00
2013-12-26,33,28,22,26,21,15,81,77,71,30.45,30.20,3,0,5,0.00
2013-12-27,40,31,26,22,20,18,77,66,47,30.39,30.29,3,0,6,0.00
2013-12-28,54,40,28,28,25,20,74,55,36,30.31,30.10,3,0,11,0.00
2013-12-29,42,40,38,40,33,26,97,79,54,30.10,29.45,4,0,9,1.28
2013-12-30,42,33,19,36,26,10,95,77,59,30.20,29.72,3,0,6,0.00
2013-12-31,29,22,16,24,13,8,85,67,57,30.33,30.10,4,0,5,0.00
2014-1-1,31,25,19,20,15,9,72,65,56,30.45,30.27,2,0,4,0.00
2014-1-2,29,23,13,21,18,10,91,83,68,30.26,29.69,6,1,8,0.00